createdAt,value
2022-08-25T00:01:31.310Z,101171.56
2022-08-25T00:04:00.606Z,101175.53
2022-08-25T00:06:28.856Z,101175.78
2022-08-25T00:08:59.562Z,101175.00
2022-08-25T00:11:32.100Z,101175.31
2022-08-25T00:14:06.186Z,101174.63
2022-08-25T00:16:33.574Z,101176.59
2022-08-25T00:19:03.384Z,101177.09
2022-08-25T00:21:31.884Z,101164.81
2022-08-25T00:23:59.547Z,101159.72
2022-08-25T00:26:27.653Z,101164.03
2022-08-25T00:29:01.261Z,101177.50
2022-08-25T00:31:38.153Z,101162.97
2022-08-25T00:34:12.473Z,101157.84
2022-08-25T00:36:39.597Z,101165.38
2022-08-25T00:39:08.234Z,101159.91
2022-08-25T00:41:36.411Z,101153.06
2022-08-25T00:44:05.580Z,101151.09
2022-08-25T00:46:39.535Z,101161.09
2022-08-25T00:49:24.947Z,101161.56
2022-08-25T00:51:54.388Z,101159.25
2022-08-25T00:54:25.682Z,101161.28
2022-08-25T00:56:52.763Z,101147.06
2022-08-25T00:59:21.491Z,101162.94
2022-08-25T01:01:49.406Z,101151.03
2022-08-25T01:04:16.578Z,101157.03
2022-08-25T01:06:45.312Z,101150.66
2022-08-25T01:09:16.028Z,101164.47
2022-08-25T01:11:44.585Z,101158.63
2022-08-25T01:14:13.027Z,101164.50
2022-08-25T01:16:40.020Z,101160.28
2022-08-25T01:19:08.116Z,101156.34
2022-08-25T01:21:42.098Z,101156.69
2022-08-25T01:24:11.721Z,101160.66
2022-08-25T01:26:38.500Z,101159.56
2022-08-25T01:29:25.246Z,101166.25
2022-08-25T01:31:57.564Z,101169.88
2022-08-25T01:34:29.723Z,101171.47
2022-08-25T01:36:57.894Z,101179.44
2022-08-25T01:39:27.065Z,101177.50
2022-08-25T01:42:03.052Z,101180.72
2022-08-25T01:44:30.499Z,101174.09
2022-08-25T01:46:57.871Z,101172.56
2022-08-25T01:49:24.604Z,101166.28
2022-08-25T01:52:11.266Z,101167.47
2022-08-25T01:54:38.421Z,101163.28
2022-08-25T01:57:05.233Z,101162.81
2022-08-25T01:59:32.166Z,101164.53
2022-08-25T02:02:00.918Z,101161.31
2022-08-25T02:04:33.103Z,101162.81
2022-08-25T02:07:03.306Z,101156.06
2022-08-25T02:09:30.072Z,101145.44
2022-08-25T02:11:57.142Z,101147.84
2022-08-25T02:14:24.293Z,101157.34
2022-08-25T02:16:53.909Z,101143.13
2022-08-25T02:19:22.362Z,101151.72
2022-08-25T02:21:49.576Z,101154.16
2022-08-25T02:24:17.037Z,101154.50
2022-08-25T02:26:44.217Z,101149.78
2022-08-25T02:29:11.181Z,101147.88
2022-08-25T02:31:38.197Z,101154.97
2022-08-25T02:34:06.182Z,101148.66
2022-08-25T02:36:33.078Z,101142.31
2022-08-25T02:39:00.360Z,101141.91
2022-08-25T02:41:27.918Z,101151.44
2022-08-25T02:43:59.668Z,101149.88
2022-08-25T02:46:26.797Z,101156.25
2022-08-25T02:48:53.759Z,101148.81
2022-08-25T02:51:22.490Z,101152.75
2022-08-25T02:53:49.843Z,101158.31
2022-08-25T02:56:18.416Z,101155.53
2022-08-25T02:58:45.986Z,101166.25
2022-08-25T03:01:13.347Z,101162.69
2022-08-25T03:03:42.127Z,101153.28
2022-08-25T03:06:12.702Z,101143.00
2022-08-25T03:08:39.629Z,101152.50
2022-08-25T03:11:06.957Z,101147.34
2022-08-25T03:13:34.248Z,101145.75
2022-08-25T03:16:01.954Z,101142.19
2022-08-25T03:18:30.532Z,101135.47
2022-08-25T03:20:58.095Z,101124.81
2022-08-25T03:23:25.231Z,101117.66
2022-08-25T03:26:12.919Z,101127.13
2022-08-25T03:28:39.873Z,101121.56
2022-08-25T03:31:06.695Z,101113.25
2022-08-25T03:33:34.081Z,101113.19
2022-08-25T03:36:01.015Z,101102.50
2022-08-25T03:38:31.654Z,101104.53
2022-08-25T03:41:00.325Z,101101.75
2022-08-25T03:43:27.223Z,101102.22
2022-08-25T03:45:53.993Z,101112.91
2022-08-25T03:48:20.803Z,101108.22
2022-08-25T03:50:51.922Z,101103.03
2022-08-25T03:53:19.829Z,101107.78
2022-08-25T03:55:47.178Z,101095.56
2022-08-25T03:58:14.025Z,101095.53
2022-08-25T04:00:41.303Z,101103.81
2022-08-25T04:03:08.268Z,101088.44
2022-08-25T04:05:35.403Z,101090.47
2022-08-25T04:08:02.492Z,101080.50
2022-08-25T04:10:29.843Z,101088.84
2022-08-25T04:12:57.194Z,101086.44
2022-08-25T04:15:25.361Z,101086.78
2022-08-25T04:17:59.827Z,101096.72
2022-08-25T04:20:26.622Z,101086.91
2022-08-25T04:22:53.280Z,101099.91
2022-08-25T04:25:20.140Z,101089.59
2022-08-25T04:27:47.135Z,101093.53
2022-08-25T04:30:14.747Z,101086.81
2022-08-25T04:32:41.582Z,101096.75
2022-08-25T04:35:08.746Z,101085.28
2022-08-25T04:37:35.594Z,101086.06
2022-08-25T04:40:02.766Z,101087.25
2022-08-25T04:42:29.727Z,101088.84
2022-08-25T04:44:56.429Z,101090.03
2022-08-25T04:47:23.640Z,101090.00
2022-08-25T04:49:50.854Z,101088.81
2022-08-25T04:52:17.673Z,101091.56
2022-08-25T04:54:45.082Z,101093.59
2022-08-25T04:57:11.832Z,101082.06
2022-08-25T04:59:38.997Z,101092.75
2022-08-25T05:02:06.714Z,101098.25
2022-08-25T05:04:35.601Z,101093.50
2022-08-25T05:07:03.204Z,101087.22
2022-08-25T05:09:32.369Z,101091.59
2022-08-25T05:12:03.718Z,101086.06
2022-08-25T05:14:31.697Z,101088.75
2022-08-25T05:16:58.763Z,101090.38
2022-08-25T05:19:26.497Z,101087.97
2022-08-25T05:21:53.809Z,101096.31
2022-08-25T05:24:21.644Z,101091.59
2022-08-25T05:26:49.395Z,101095.50
2022-08-25T05:29:16.447Z,101102.22
2022-08-25T05:31:49.591Z,101098.66
2022-08-25T05:34:19.003Z,101099.00
2022-08-25T05:36:46.141Z,101107.66
2022-08-25T05:39:12.981Z,101106.09
2022-08-25T05:41:39.740Z,101107.03
2022-08-25T05:44:06.919Z,101105.25
2022-08-25T05:46:33.773Z,101107.31
2022-08-25T05:49:00.674Z,101101.78
2022-08-25T05:51:27.948Z,101103.63
2022-08-25T05:53:54.707Z,101109.94
2022-08-25T05:56:21.547Z,101111.56
2022-08-25T05:58:48.526Z,101109.50
2022-08-25T06:01:44.853Z,101103.44
2022-08-25T06:04:12.899Z,101103.56
2022-08-25T06:06:40.178Z,101099.44
2022-08-25T06:09:08.839Z,101107.56
2022-08-25T06:11:37.428Z,101101.88
2022-08-25T06:14:04.838Z,101103.13
2022-08-25T06:16:31.956Z,101098.31
2022-08-25T06:18:59.054Z,101096.38
2022-08-25T06:21:26.034Z,101098.41
2022-08-25T06:23:52.849Z,101089.59
2022-08-25T06:26:21.497Z,101092.41
2022-08-25T06:28:50.818Z,101089.59
2022-08-25T06:31:17.800Z,101088.41
2022-08-25T06:33:45.048Z,101098.34
2022-08-25T06:36:11.821Z,101089.84
2022-08-25T06:38:38.529Z,101092.97
2022-08-25T06:41:06.537Z,101088.59
2022-08-25T06:43:34.443Z,101092.53
2022-08-25T06:46:14.455Z,101100.41
2022-08-25T06:48:41.180Z,101086.31
2022-08-25T06:51:14.016Z,101084.44
2022-08-25T06:53:42.920Z,101081.81
2022-08-25T06:56:10.258Z,101071.44
2022-08-25T06:58:37.126Z,101072.00
2022-08-25T07:01:20.054Z,101079.00
2022-08-25T07:03:48.372Z,101077.34
2022-08-25T07:06:16.556Z,101065.72
2022-08-25T07:08:46.170Z,101078.38
2022-08-25T07:11:16.062Z,101077.34
2022-08-25T07:13:44.034Z,101080.81
2022-08-25T07:16:15.380Z,101082.72
2022-08-25T07:18:42.624Z,101080.25
2022-08-25T07:21:12.386Z,101077.38
2022-08-25T07:23:40.542Z,101082.59
2022-08-25T07:26:36.720Z,101071.69
2022-08-25T07:29:02.214Z,101087.31
2022-08-25T07:31:30.217Z,101087.28
2022-08-25T07:34:16.278Z,101083.25
2022-08-25T07:36:44.178Z,101084.41
2022-08-25T07:39:11.050Z,101087.66
2022-08-25T07:41:41.605Z,101089.03
2022-08-25T07:44:10.126Z,101089.56
2022-08-25T07:46:37.517Z,101092.88
2022-08-25T07:49:13.319Z,101096.03
2022-08-25T07:52:04.531Z,101092.91
2022-08-25T07:54:33.724Z,101093.38
2022-08-25T07:57:02.431Z,101098.41
2022-08-25T07:59:29.308Z,101088.09
2022-08-25T08:01:56.692Z,101100.09
2022-08-25T08:04:23.527Z,101095.97
2022-08-25T08:06:50.161Z,101096.69
2022-08-25T08:09:16.905Z,101102.44
2022-08-25T08:11:53.956Z,101102.75
2022-08-25T08:14:21.366Z,101104.31
2022-08-25T08:16:48.079Z,101106.06
2022-08-25T08:19:15.608Z,101109.19
2022-08-25T08:21:42.885Z,101104.28
2022-08-25T08:24:24.783Z,101095.59
2022-08-25T08:26:59.135Z,101109.34
2022-08-25T08:29:26.369Z,101100.19
2022-08-25T08:31:53.408Z,101096.28
2022-08-25T08:34:20.144Z,101101.06
2022-08-25T08:36:52.716Z,101101.31
2022-08-25T08:39:19.992Z,101093.25
2022-08-25T08:42:16.813Z,101096.50
2022-08-25T08:44:47.044Z,101093.84
2022-08-25T08:47:32.883Z,101087.84
2022-08-25T08:50:30.795Z,101078.97
2022-08-25T08:53:10.884Z,101073.16
2022-08-25T08:55:44.427Z,101089.72
2022-08-25T08:58:20.945Z,101084.94
2022-08-25T09:00:58.259Z,101069.81
2022-08-25T09:03:55.307Z,101075.69
2022-08-25T09:06:32.331Z,101065.16
2022-08-25T09:09:02.717Z,101066.75
2022-08-25T09:12:13.454Z,101073.41
2022-08-25T09:14:53.744Z,101061.94
2022-08-25T09:17:54.298Z,101063.88
2022-08-25T09:20:43.543Z,101059.97
2022-08-25T09:23:28.724Z,101060.72
2022-08-25T09:26:28.430Z,101058.97
2022-08-25T09:29:26.235Z,101064.78
2022-08-25T09:31:58.847Z,101051.44
2022-08-25T09:34:34.466Z,101052.06
2022-08-25T09:37:01.528Z,101060.38
2022-08-25T09:39:29.834Z,101056.38
2022-08-25T09:41:59.190Z,101055.00
2022-08-25T09:44:45.353Z,101054.09
2022-08-25T09:47:18.350Z,101052.47
2022-08-25T09:49:47.944Z,101061.22
2022-08-25T09:52:32.774Z,101053.50
2022-08-25T09:55:21.927Z,101052.53
2022-08-25T09:57:53.208Z,101044.81
2022-08-25T10:00:22.293Z,101035.47
2022-08-25T10:03:10.111Z,101033.31
2022-08-25T10:05:45.912Z,101032.56
2022-08-25T10:08:24.820Z,101027.72
2022-08-25T10:10:57.535Z,101023.06
2022-08-25T10:13:38.776Z,101018.16
2022-08-25T10:16:19.952Z,101025.34
2022-08-25T10:19:04.880Z,101020.94
2022-08-25T10:21:31.950Z,101012.56
2022-08-25T10:24:01.576Z,101013.97
2022-08-25T10:26:50.132Z,101020.50
2022-08-25T10:29:27.360Z,101016.47
2022-08-25T10:32:12.024Z,101016.28
2022-08-25T10:34:51.647Z,101008.34
2022-08-25T10:37:57.360Z,101012.56
2022-08-25T10:40:34.131Z,101006.78
2022-08-25T10:43:28.783Z,101012.09
2022-08-25T10:46:12.571Z,101004.13
2022-08-25T10:48:43.324Z,100997.44
2022-08-25T10:51:34.423Z,100999.91
2022-08-25T10:54:35.349Z,101006.47
2022-08-25T10:57:27.684Z,100996.03
2022-08-25T11:00:12.405Z,101002.41
2022-08-25T11:02:48.726Z,100996.31
2022-08-25T11:05:36.842Z,100989.13
2022-08-25T11:08:44.578Z,100990.06
2022-08-25T11:11:31.488Z,100977.88
2022-08-25T11:14:09.415Z,100976.19
2022-08-25T11:16:43.529Z,100968.22
2022-08-25T11:19:28.477Z,100959.34
2022-08-25T11:22:02.483Z,100958.53
2022-08-25T11:24:36.211Z,100955.13
2022-08-25T11:27:05.883Z,100956.03
2022-08-25T11:29:36.753Z,100943.28
2022-08-25T11:32:04.281Z,100947.75
2022-08-25T11:34:34.152Z,100946.69
2022-08-25T11:37:11.064Z,100940.28
2022-08-25T11:40:11.108Z,100951.03
2022-08-25T11:42:55.746Z,100941.66
2022-08-25T11:46:01.013Z,100948.56
2022-08-25T11:48:47.051Z,100934.69
2022-08-25T11:51:36.383Z,100923.16
2022-08-25T11:54:18.726Z,100928.09
2022-08-25T11:56:57.065Z,100932.44
2022-08-25T11:59:52.404Z,100928.75
2022-08-25T12:02:37.158Z,100921.19
2022-08-25T12:05:06.338Z,100919.19
2022-08-25T12:08:22.859Z,100926.72
2022-08-25T12:10:57.469Z,100919.53
2022-08-25T12:13:28.177Z,100918.00
2022-08-25T12:15:56.764Z,100914.22
2022-08-25T12:18:24.895Z,100919.69
2022-08-25T12:20:54.981Z,100913.81
2022-08-25T12:23:44.930Z,100912.47
2022-08-25T12:26:31.818Z,100917.38
2022-08-25T12:29:21.415Z,100917.91
2022-08-25T12:32:04.420Z,100909.16
2022-08-25T12:34:46.973Z,100916.72
2022-08-25T12:37:16.734Z,100919.06
2022-08-25T12:40:03.091Z,100920.31
2022-08-25T12:42:45.922Z,100911.13
2022-08-25T12:45:32.359Z,100916.59
2022-08-25T12:48:28.180Z,100914.72
2022-08-25T12:51:05.261Z,100911.13
2022-08-25T12:53:43.874Z,100909.72
2022-08-25T12:56:22.515Z,100895.34
2022-08-25T12:59:01.491Z,100894.75
2022-08-25T13:01:59.129Z,100895.16
2022-08-25T13:04:41.510Z,100897.06
2022-08-25T13:07:23.830Z,100899.88
2022-08-25T13:10:21.370Z,100905.50
2022-08-25T13:13:05.283Z,100903.16
2022-08-25T13:15:55.358Z,100893.31
2022-08-25T13:18:31.344Z,100884.66
2022-08-25T13:21:37.183Z,100890.09
2022-08-25T13:24:08.581Z,100875.91
2022-08-25T13:26:47.384Z,100880.41
2022-08-25T13:29:27.862Z,100877.84
2022-08-25T13:31:59.386Z,100878.50
2022-08-25T13:34:35.226Z,100872.72
2022-08-25T13:37:26.990Z,100869.22
2022-08-25T13:40:12.268Z,100873.28
2022-08-25T13:42:55.606Z,100868.44
2022-08-25T13:45:31.649Z,100863.97
2022-08-25T13:48:02.172Z,100866.84
2022-08-25T13:50:37.711Z,100862.13
2022-08-25T13:53:16.174Z,100862.75
2022-08-25T13:56:40.013Z,100858.56
2022-08-25T13:59:56.575Z,100853.84
2022-08-25T14:02:45.172Z,100859.28
2022-08-25T14:05:32.226Z,100851.97
2022-08-25T14:08:16.246Z,100851.97
2022-08-25T14:11:02.857Z,100847.56
2022-08-25T14:13:32.532Z,100851.50
2022-08-25T14:16:14.328Z,100843.97
2022-08-25T14:18:48.536Z,100827.41
2022-08-25T14:21:15.730Z,100838.22
2022-08-25T14:23:42.758Z,100844.03
2022-08-25T14:26:09.960Z,100847.09
2022-08-25T14:28:37.133Z,100837.75
2022-08-25T14:31:14.281Z,100835.34
2022-08-25T14:34:10.216Z,100834.00
2022-08-25T14:36:39.429Z,100829.78
2022-08-25T14:39:10.068Z,100818.84
2022-08-25T14:41:38.726Z,100837.53
2022-08-25T14:44:06.973Z,100812.44
2022-08-25T14:46:36.608Z,100821.78
2022-08-25T14:49:05.562Z,100819.56
2022-08-25T14:51:33.441Z,100822.13
2022-08-25T14:54:06.745Z,100821.28
2022-08-25T14:56:34.771Z,100822.81
2022-08-25T14:59:02.108Z,100808.97
2022-08-25T15:01:31.713Z,100821.06
2022-08-25T15:04:04.094Z,100821.22
2022-08-25T15:06:30.905Z,100829.97
2022-08-25T15:09:11.706Z,100818.03
2022-08-25T15:11:42.713Z,100820.09
2022-08-25T15:14:12.167Z,100824.00
2022-08-25T15:16:45.755Z,100815.94
2022-08-25T15:19:16.133Z,100826.84
2022-08-25T15:21:44.808Z,100821.06
2022-08-25T15:24:12.376Z,100824.19
2022-08-25T15:29:23.045Z,100815.34
2022-08-25T15:31:50.194Z,100818.59
2022-08-25T15:34:17.530Z,100818.59
2022-08-25T15:36:46.696Z,100811.91
2022-08-25T15:39:14.760Z,100808.31
2022-08-25T15:41:46.918Z,100809.59
2022-08-25T15:44:16.552Z,100823.47
2022-08-25T15:46:46.914Z,100827.53
2022-08-25T15:49:23.480Z,100822.34
2022-08-25T15:51:55.250Z,100806.97
2022-08-25T15:54:23.870Z,100819.56
2022-08-25T15:56:54.495Z,100820.78
2022-08-25T15:59:21.951Z,100824.13
2022-08-25T16:01:53.441Z,100824.84
2022-08-25T16:04:28.923Z,100815.81
2022-08-25T16:06:56.179Z,100828.78
2022-08-25T16:09:23.840Z,100821.44
2022-08-25T16:11:55.909Z,100832.94
2022-08-25T16:14:25.428Z,100840.06
2022-08-25T16:16:58.504Z,100848.09
2022-08-25T16:19:28.338Z,100843.72
2022-08-25T16:21:55.936Z,100842.97
2022-08-25T16:24:22.695Z,100842.03
2022-08-25T16:26:51.753Z,100841.38
2022-08-25T16:29:19.187Z,100836.28
2022-08-25T16:31:53.277Z,100834.19
2022-08-25T16:34:28.569Z,100851.00
2022-08-25T16:36:58.166Z,100847.31
2022-08-25T16:39:26.263Z,100850.91
2022-08-25T16:41:53.068Z,100851.22
2022-08-25T16:44:22.783Z,100864.00
2022-08-25T16:46:50.066Z,100853.47
2022-08-25T16:49:17.803Z,100861.97
2022-08-25T16:51:44.945Z,100862.53
2022-08-25T16:54:33.511Z,100857.22
2022-08-25T16:57:00.836Z,100857.38
2022-08-25T16:59:27.706Z,100852.66
2022-08-25T17:01:54.783Z,100854.69
2022-08-25T17:04:27.550Z,100843.03
2022-08-25T17:06:59.837Z,100852.50
2022-08-25T17:09:26.866Z,100853.22
2022-08-25T17:11:56.837Z,100862.00
2022-08-25T17:14:24.022Z,100863.78
2022-08-25T17:16:57.020Z,100859.91
2022-08-25T17:19:25.817Z,100856.56
2022-08-25T17:21:54.826Z,100865.94
2022-08-25T17:24:22.354Z,100869.78
2022-08-25T17:26:56.466Z,100869.09
2022-08-25T17:29:23.252Z,100867.53
2022-08-25T17:31:51.250Z,100870.75
2022-08-25T17:34:23.186Z,100872.00
2022-08-25T17:36:53.185Z,100867.66
2022-08-25T17:39:22.355Z,100856.97
2022-08-25T17:41:50.555Z,100867.34
2022-08-25T17:44:17.688Z,100879.44
2022-08-25T17:46:47.637Z,100875.69
2022-08-25T17:49:16.256Z,100884.44
2022-08-25T17:51:43.004Z,100888.22
2022-08-25T17:54:10.209Z,100887.56
2022-08-25T17:56:37.866Z,100896.41
2022-08-25T17:59:04.676Z,100899.63
2022-08-25T18:01:33.951Z,100898.88
2022-08-25T18:04:00.782Z,100907.84
2022-08-25T18:06:29.586Z,100895.63
2022-08-25T18:08:59.741Z,100896.78
2022-08-25T18:11:27.789Z,100908.19
2022-08-25T18:13:55.157Z,100919.63
2022-08-25T18:16:22.821Z,100925.22
2022-08-25T18:18:49.564Z,100932.44
2022-08-25T18:21:20.348Z,100926.34
2022-08-25T18:23:47.784Z,100931.41
2022-08-25T18:26:17.199Z,100930.13
2022-08-25T18:28:48.978Z,100936.50
2022-08-25T18:31:15.867Z,100932.22
2022-08-25T18:33:47.205Z,100948.97
2022-08-25T18:36:17.879Z,100941.41
2022-08-25T18:39:04.163Z,100932.78
2022-08-25T18:41:36.923Z,100945.47
2022-08-25T18:44:04.880Z,100952.25
2022-08-25T18:46:31.649Z,100958.69
2022-08-25T18:48:59.203Z,100958.03
2022-08-25T18:51:26.006Z,100967.16
2022-08-25T18:53:54.511Z,100979.06
2022-08-25T18:56:26.521Z,100975.56
2022-08-25T18:58:53.306Z,100970.44
2022-08-25T19:01:21.335Z,100972.06
2022-08-25T19:03:48.571Z,100978.34
2022-08-25T19:06:15.722Z,100985.69
2022-08-25T19:08:43.601Z,100996.84
2022-08-25T19:11:10.697Z,101010.31
2022-08-25T19:13:38.493Z,101013.16
2022-08-25T19:16:17.666Z,101019.09
2022-08-25T19:18:47.044Z,101016.56
2022-08-25T19:21:13.951Z,101020.63
2022-08-25T19:23:40.716Z,101028.56
2022-08-25T19:26:13.989Z,101023.75
2022-08-25T19:28:49.006Z,101035.16
2022-08-25T19:31:18.132Z,101036.81
2022-08-25T19:33:45.942Z,101014.25
2022-08-25T19:36:13.072Z,101035.34
2022-08-25T19:38:39.911Z,101039.94
2022-08-25T19:41:10.403Z,101043.56
2022-08-25T19:43:54.985Z,101045.72
2022-08-25T19:46:23.209Z,101048.81
2022-08-25T19:48:50.563Z,101049.59
2022-08-25T19:51:19.437Z,101040.38
2022-08-25T19:53:54.274Z,101053.34
2022-08-25T19:56:22.544Z,101054.22
2022-08-25T19:58:49.398Z,101056.09
2022-08-25T20:01:18.279Z,101049.72
2022-08-25T20:03:45.398Z,101045.00
2022-08-25T20:06:15.761Z,101051.72
2022-08-25T20:08:43.234Z,101065.03
2022-08-25T20:11:09.905Z,101069.13
2022-08-25T20:13:37.162Z,101062.28
2022-08-25T20:16:04.424Z,101062.75
2022-08-25T20:18:32.530Z,101060.72
2022-08-25T20:20:59.338Z,101047.25
2022-08-25T20:23:44.737Z,101064.03
2022-08-25T20:26:11.513Z,101070.44
2022-08-25T20:28:42.042Z,101078.91
2022-08-25T20:31:09.434Z,101079.78
2022-08-25T20:33:36.279Z,101071.34
2022-08-25T20:36:04.866Z,101076.66
2022-08-25T20:38:32.278Z,101078.66
2022-08-25T20:41:00.742Z,101089.31
2022-08-25T20:43:28.002Z,101096.78
2022-08-25T20:46:02.031Z,101099.78
2022-08-25T20:48:28.922Z,101095.06
2022-08-25T20:50:58.160Z,101095.72
2022-08-25T20:53:25.735Z,101104.44
2022-08-25T20:55:55.274Z,101099.97
2022-08-25T20:58:26.829Z,101095.22
2022-08-25T21:00:55.270Z,101094.91
2022-08-25T21:03:34.834Z,101102.78
2022-08-25T21:06:14.239Z,101101.28
2022-08-25T21:09:04.086Z,101102.06
2022-08-25T21:11:31.196Z,101100.91
2022-08-25T21:14:05.986Z,101106.06
2022-08-25T21:16:38.344Z,101100.91
2022-08-25T21:19:16.467Z,101118.25
2022-08-25T21:21:44.522Z,101120.28
2022-08-25T21:24:18.690Z,101127.28
2022-08-25T21:26:51.085Z,101127.72
2022-08-25T21:29:19.653Z,101128.69
2022-08-25T21:31:47.747Z,101124.06
2022-08-25T21:34:17.358Z,101126.81
2022-08-25T21:36:46.122Z,101140.84
2022-08-25T21:39:13.180Z,101129.41
2022-08-25T21:41:42.806Z,101132.38
2022-08-25T21:44:10.755Z,101132.69
2022-08-25T21:46:40.538Z,101131.91
2022-08-25T21:49:27.846Z,101129.03
2022-08-25T21:52:00.865Z,101142.63
2022-08-25T21:54:43.371Z,101136.97
2022-08-25T21:57:10.282Z,101131.00
2022-08-25T21:59:40.418Z,101121.66
2022-08-25T22:02:11.292Z,101139.09
2022-08-25T22:04:39.366Z,101126.34
2022-08-25T22:07:08.033Z,101139.75
2022-08-25T22:09:35.668Z,101131.50
2022-08-25T22:12:03.553Z,101140.06
2022-08-25T22:14:30.508Z,101139.09
2022-08-25T22:16:57.306Z,101145.50
2022-08-25T22:19:24.885Z,101141.41
2022-08-25T22:21:52.811Z,101141.91
2022-08-25T22:24:22.814Z,101156.34
2022-08-25T22:26:55.855Z,101152.81
2022-08-25T22:29:25.363Z,101153.88
2022-08-25T22:31:54.209Z,101155.19
2022-08-25T22:34:30.536Z,101153.28
2022-08-25T22:36:59.995Z,101158.13
2022-08-25T22:39:26.867Z,101160.53
2022-08-25T22:41:53.899Z,101168.44
2022-08-25T22:44:20.608Z,101175.88
2022-08-25T22:46:47.361Z,101159.38
2022-08-25T22:49:14.045Z,101169.47
2022-08-25T22:51:41.211Z,101173.94
2022-08-25T22:54:09.485Z,101181.84
2022-08-25T22:56:37.376Z,101188.66
2022-08-25T22:59:08.427Z,101183.91
2022-08-25T23:01:35.366Z,101181.59
2022-08-25T23:04:03.874Z,101177.22
2022-08-25T23:06:31.465Z,101183.72
2022-08-25T23:08:59.579Z,101177.72
2022-08-25T23:11:29.026Z,101176.78
2022-08-25T23:14:00.394Z,101179.53
2022-08-25T23:16:28.317Z,101173.81
2022-08-25T23:18:55.217Z,101170.31
2022-08-25T23:21:41.283Z,101173.50
2022-08-25T23:24:11.041Z,101173.91
2022-08-25T23:26:42.583Z,101175.00
2022-08-25T23:29:17.997Z,101166.38
2022-08-25T23:31:46.572Z,101178.50
2022-08-25T23:34:13.661Z,101168.53
2022-08-25T23:36:40.529Z,101180.06
2022-08-25T23:39:07.800Z,101175.34
2022-08-25T23:41:34.978Z,101183.19
2022-08-25T23:44:05.340Z,101175.50
2022-08-25T23:46:35.073Z,101180.94
2022-08-25T23:49:04.781Z,101188.81
2022-08-25T23:51:33.971Z,101182.88
2022-08-25T23:54:09.476Z,101184.69
2022-08-25T23:56:44.609Z,101181.91
2022-08-25T23:59:18.236Z,101184.28
